sensor_id;sensor_type;location;lat;lon;timestamp;temperature;humidity
71668;DHT22;59504;54.806;9.640;2022-12-18T00:00:24;-4.50;76.40
71668;DHT22;59504;54.806;9.640;2022-12-18T00:02:44;-4.50;76.20
71668;DHT22;59504;54.806;9.640;2022-12-18T00:05:03;-4.40;76.30
71668;DHT22;59504;54.806;9.640;2022-12-18T00:07:22;-4.50;76.20
71668;DHT22;59504;54.806;9.640;2022-12-18T00:09:42;-4.50;76.20
71668;DHT22;59504;54.806;9.640;2022-12-18T00:12:01;-4.50;76.20
71668;DHT22;59504;54.806;9.640;2022-12-18T00:14:20;-4.40;76.30
71668;DHT22;59504;54.806;9.640;2022-12-18T00:16:42;-4.40;76.40
71668;DHT22;59504;54.806;9.640;2022-12-18T00:19:02;-4.50;76.30
71668;DHT22;59504;54.806;9.640;2022-12-18T00:21:22;-4.40;76.20
71668;DHT22;59504;54.806;9.640;2022-12-18T00:23:43;-4.40;76.20
71668;DHT22;59504;54.806;9.640;2022-12-18T00:26:07;-4.40;76.10
71668;DHT22;59504;54.806;9.640;2022-12-18T00:28:27;-4.40;76.20
71668;DHT22;59504;54.806;9.640;2022-12-18T00:30:46;-4.40;76.20
71668;DHT22;59504;54.806;9.640;2022-12-18T00:33:06;-4.40;76.00
71668;DHT22;59504;54.806;9.640;2022-12-18T00:35:25;-4.40;76.00
71668;DHT22;59504;54.806;9.640;2022-12-18T00:37:44;-4.40;76.10
71668;DHT22;59504;54.806;9.640;2022-12-18T00:40:04;-4.40;76.00
71668;DHT22;59504;54.806;9.640;2022-12-18T00:42:23;-4.40;76.00
71668;DHT22;59504;54.806;9.640;2022-12-18T00:45:01;-4.40;75.90
71668;DHT22;59504;54.806;9.640;2022-12-18T00:47:19;-4.40;75.80
71668;DHT22;59504;54.806;9.640;2022-12-18T00:49:39;-4.40;75.80
71668;DHT22;59504;54.806;9.640;2022-12-18T00:51:58;-4.40;75.70
71668;DHT22;59504;54.806;9.640;2022-12-18T00:54:17;-4.40;75.80
71668;DHT22;59504;54.806;9.640;2022-12-18T00:56:37;-4.40;75.70
71668;DHT22;59504;54.806;9.640;2022-12-18T00:58:57;-4.40;75.80
71668;DHT22;59504;54.806;9.640;2022-12-18T01:01:16;-4.40;75.70
71668;DHT22;59504;54.806;9.640;2022-12-18T01:03:36;-4.40;75.80
71668;DHT22;59504;54.806;9.640;2022-12-18T01:05:55;-4.40;75.70
71668;DHT22;59504;54.806;9.640;2022-12-18T01:08:14;-4.40;75.70
71668;DHT22;59504;54.806;9.640;2022-12-18T01:10:33;-4.40;75.80
71668;DHT22;59504;54.806;9.640;2022-12-18T01:12:52;-4.40;75.80
71668;DHT22;59504;54.806;9.640;2022-12-18T01:15:13;-4.40;75.80
71668;DHT22;59504;54.806;9.640;2022-12-18T01:17:33;-4.40;75.90
71668;DHT22;59504;54.806;9.640;2022-12-18T01:19:52;-4.40;75.80
71668;DHT22;59504;54.806;9.640;2022-12-18T01:22:12;-4.40;75.90
71668;DHT22;59504;54.806;9.640;2022-12-18T01:24:31;-4.30;75.90
71668;DHT22;59504;54.806;9.640;2022-12-18T01:26:50;-4.40;75.80
71668;DHT22;59504;54.806;9.640;2022-12-18T01:29:09;-4.40;75.90
71668;DHT22;59504;54.806;9.640;2022-12-18T01:31:30;-4.40;75.80
71668;DHT22;59504;54.806;9.640;2022-12-18T01:33:50;-4.30;75.90
71668;DHT22;59504;54.806;9.640;2022-12-18T01:36:19;-4.30;75.90
71668;DHT22;59504;54.806;9.640;2022-12-18T01:38:38;-4.30;75.90
71668;DHT22;59504;54.806;9.640;2022-12-18T01:40:58;-4.30;75.90
71668;DHT22;59504;54.806;9.640;2022-12-18T01:43:18;-4.30;75.90
71668;DHT22;59504;54.806;9.640;2022-12-18T01:45:37;-4.30;75.90
71668;DHT22;59504;54.806;9.640;2022-12-18T01:47:59;-4.30;76.00
71668;DHT22;59504;54.806;9.640;2022-12-18T01:50:32;-4.30;76.00
71668;DHT22;59504;54.806;9.640;2022-12-18T01:52:55;-4.30;75.90
71668;DHT22;59504;54.806;9.640;2022-12-18T01:55:18;-4.30;76.00
71668;DHT22;59504;54.806;9.640;2022-12-18T01:57:38;-4.30;76.00
71668;DHT22;59504;54.806;9.640;2022-12-18T02:00:08;-4.30;76.00
71668;DHT22;59504;54.806;9.640;2022-12-18T02:02:28;-4.20;76.00
71668;DHT22;59504;54.806;9.640;2022-12-18T02:04:48;-4.20;76.00
71668;DHT22;59504;54.806;9.640;2022-12-18T02:09:45;-4.20;76.00
71668;DHT22;59504;54.806;9.640;2022-12-18T02:14:39;-4.20;75.80
71668;DHT22;59504;54.806;9.640;2022-12-18T02:17:22;-4.20;75.80
71668;DHT22;59504;54.806;9.640;2022-12-18T02:22:35;-4.20;75.80
71668;DHT22;59504;54.806;9.640;2022-12-18T02:25:01;-4.20;75.70
71668;DHT22;59504;54.806;9.640;2022-12-18T02:27:24;-4.20;75.70
71668;DHT22;59504;54.806;9.640;2022-12-18T02:29:50;-4.20;75.70
71668;DHT22;59504;54.806;9.640;2022-12-18T02:32:14;-4.20;75.60
71668;DHT22;59504;54.806;9.640;2022-12-18T02:34:38;-4.20;75.50
71668;DHT22;59504;54.806;9.640;2022-12-18T02:36:59;-4.20;75.50
71668;DHT22;59504;54.806;9.640;2022-12-18T02:39:21;-4.20;75.50
71668;DHT22;59504;54.806;9.640;2022-12-18T02:41:41;-4.20;75.50
71668;DHT22;59504;54.806;9.640;2022-12-18T02:44:01;-4.20;75.50
71668;DHT22;59504;54.806;9.640;2022-12-18T02:46:31;-4.20;75.50
71668;DHT22;59504;54.806;9.640;2022-12-18T02:49:01;-4.30;75.40
71668;DHT22;59504;54.806;9.640;2022-12-18T02:51:25;-4.20;75.50
71668;DHT22;59504;54.806;9.640;2022-12-18T02:53:56;-4.30;75.40
71668;DHT22;59504;54.806;9.640;2022-12-18T02:56:23;-4.30;75.40
71668;DHT22;59504;54.806;9.640;2022-12-18T02:59:02;-4.30;75.30
71668;DHT22;59504;54.806;9.640;2022-12-18T03:01:47;-4.30;75.30
71668;DHT22;59504;54.806;9.640;2022-12-18T03:04:38;-4.30;75.30
71668;DHT22;59504;54.806;9.640;2022-12-18T03:07:01;-4.30;75.40
71668;DHT22;59504;54.806;9.640;2022-12-18T03:09:29;-4.30;75.40
71668;DHT22;59504;54.806;9.640;2022-12-18T03:11:56;-4.30;75.40
71668;DHT22;59504;54.806;9.640;2022-12-18T03:14:38;-4.30;75.40
71668;DHT22;59504;54.806;9.640;2022-12-18T03:17:02;-4.30;75.40
71668;DHT22;59504;54.806;9.640;2022-12-18T03:19:24;-4.30;75.40
71668;DHT22;59504;54.806;9.640;2022-12-18T03:21:53;-4.30;75.50
71668;DHT22;59504;54.806;9.640;2022-12-18T03:24:14;-4.30;75.40
71668;DHT22;59504;54.806;9.640;2022-12-18T03:26:35;-4.30;75.30
71668;DHT22;59504;54.806;9.640;2022-12-18T03:29:08;-4.30;75.30
71668;DHT22;59504;54.806;9.640;2022-12-18T03:31:30;-4.30;75.30
71668;DHT22;59504;54.806;9.640;2022-12-18T03:33:57;-4.30;75.40
71668;DHT22;59504;54.806;9.640;2022-12-18T03:36:18;-4.30;75.40
71668;DHT22;59504;54.806;9.640;2022-12-18T03:38:37;-4.30;75.30
71668;DHT22;59504;54.806;9.640;2022-12-18T03:41:11;-4.30;75.40
71668;DHT22;59504;54.806;9.640;2022-12-18T03:43:46;-4.30;75.30
71668;DHT22;59504;54.806;9.640;2022-12-18T03:49:17;-4.30;76.00
71668;DHT22;59504;54.806;9.640;2022-12-18T03:51:50;-4.30;75.20
71668;DHT22;59504;54.806;9.640;2022-12-18T03:54:11;-4.30;75.20
71668;DHT22;59504;54.806;9.640;2022-12-18T03:56:35;-4.40;75.10
71668;DHT22;59504;54.806;9.640;2022-12-18T03:58:56;-4.40;75.10
71668;DHT22;59504;54.806;9.640;2022-12-18T04:01:18;-4.40;75.10
71668;DHT22;59504;54.806;9.640;2022-12-18T04:03:39;-4.40;75.00
71668;DHT22;59504;54.806;9.640;2022-12-18T04:05:59;-4.40;75.00
71668;DHT22;59504;54.806;9.640;2022-12-18T04:08:21;-4.40;75.00
71668;DHT22;59504;54.806;9.640;2022-12-18T04:10:40;-4.40;74.90
71668;DHT22;59504;54.806;9.640;2022-12-18T04:12:59;-4.40;74.90
71668;DHT22;59504;54.806;9.640;2022-12-18T04:15:19;-4.40;74.90
71668;DHT22;59504;54.806;9.640;2022-12-18T04:17:39;-4.40;74.80
71668;DHT22;59504;54.806;9.640;2022-12-18T04:20:02;-4.40;74.90
71668;DHT22;59504;54.806;9.640;2022-12-18T04:22:21;-4.50;74.70
71668;DHT22;59504;54.806;9.640;2022-12-18T04:24:41;-4.50;74.80
71668;DHT22;59504;54.806;9.640;2022-12-18T04:27:00;-4.50;74.70
71668;DHT22;59504;54.806;9.640;2022-12-18T04:29:19;-4.50;74.80
71668;DHT22;59504;54.806;9.640;2022-12-18T04:31:38;-4.50;74.80
71668;DHT22;59504;54.806;9.640;2022-12-18T04:33:57;-4.50;74.70
71668;DHT22;59504;54.806;9.640;2022-12-18T04:36:16;-4.50;74.80
71668;DHT22;59504;54.806;9.640;2022-12-18T04:38:35;-4.50;74.80
71668;DHT22;59504;54.806;9.640;2022-12-18T04:40:54;-4.50;74.70
71668;DHT22;59504;54.806;9.640;2022-12-18T04:43:13;-4.50;74.70
71668;DHT22;59504;54.806;9.640;2022-12-18T04:45:33;-4.60;74.60
71668;DHT22;59504;54.806;9.640;2022-12-18T04:47:52;-4.60;74.60
71668;DHT22;59504;54.806;9.640;2022-12-18T04:50:11;-4.60;74.60
71668;DHT22;59504;54.806;9.640;2022-12-18T04:52:30;-4.60;74.60
71668;DHT22;59504;54.806;9.640;2022-12-18T04:54:49;-4.50;74.70
71668;DHT22;59504;54.806;9.640;2022-12-18T04:57:08;-4.60;74.60
71668;DHT22;59504;54.806;9.640;2022-12-18T04:59:28;-4.60;74.60
71668;DHT22;59504;54.806;9.640;2022-12-18T05:01:47;-4.70;74.50
71668;DHT22;59504;54.806;9.640;2022-12-18T05:04:06;-4.70;74.50
71668;DHT22;59504;54.806;9.640;2022-12-18T05:06:25;-4.70;74.60
71668;DHT22;59504;54.806;9.640;2022-12-18T05:08:44;-4.70;74.60
71668;DHT22;59504;54.806;9.640;2022-12-18T05:11:07;-4.70;74.60
71668;DHT22;59504;54.806;9.640;2022-12-18T05:13:27;-4.70;74.60
71668;DHT22;59504;54.806;9.640;2022-12-18T05:15:51;-4.70;74.60
71668;DHT22;59504;54.806;9.640;2022-12-18T05:18:11;-4.70;74.60
71668;DHT22;59504;54.806;9.640;2022-12-18T05:20:30;-4.70;74.60
71668;DHT22;59504;54.806;9.640;2022-12-18T05:22:51;-4.80;74.50
71668;DHT22;59504;54.806;9.640;2022-12-18T05:25:10;-4.80;74.50
71668;DHT22;59504;54.806;9.640;2022-12-18T05:27:29;-4.70;74.60
71668;DHT22;59504;54.806;9.640;2022-12-18T05:29:48;-4.80;74.60
71668;DHT22;59504;54.806;9.640;2022-12-18T05:32:07;-4.80;74.50
71668;DHT22;59504;54.806;9.640;2022-12-18T05:34:28;-4.80;74.60
71668;DHT22;59504;54.806;9.640;2022-12-18T05:36:47;-4.80;74.50
71668;DHT22;59504;54.806;9.640;2022-12-18T05:39:06;-4.80;74.50
71668;DHT22;59504;54.806;9.640;2022-12-18T05:41:25;-4.80;74.50
71668;DHT22;59504;54.806;9.640;2022-12-18T05:43:45;-4.80;75.30
71668;DHT22;59504;54.806;9.640;2022-12-18T05:46:06;-4.80;74.50
71668;DHT22;59504;54.806;9.640;2022-12-18T05:48:25;-4.80;74.50
71668;DHT22;59504;54.806;9.640;2022-12-18T05:50:47;-4.90;74.40
71668;DHT22;59504;54.806;9.640;2022-12-18T05:53:07;-4.90;74.40
71668;DHT22;59504;54.806;9.640;2022-12-18T05:55:27;-4.90;74.50
71668;DHT22;59504;54.806;9.640;2022-12-18T05:57:46;-4.90;74.40
71668;DHT22;59504;54.806;9.640;2022-12-18T06:00:05;-4.90;74.50
71668;DHT22;59504;54.806;9.640;2022-12-18T06:02:25;-4.90;74.50
71668;DHT22;59504;54.806;9.640;2022-12-18T06:04:44;-4.90;74.50
71668;DHT22;59504;54.806;9.640;2022-12-18T06:07:03;-4.90;74.60
71668;DHT22;59504;54.806;9.640;2022-12-18T06:09:22;-4.90;74.50
71668;DHT22;59504;54.806;9.640;2022-12-18T06:11:41;-4.90;74.60
71668;DHT22;59504;54.806;9.640;2022-12-18T06:14:01;-4.90;74.60
71668;DHT22;59504;54.806;9.640;2022-12-18T06:16:20;-4.90;74.60
71668;DHT22;59504;54.806;9.640;2022-12-18T06:18:39;-4.90;74.60
71668;DHT22;59504;54.806;9.640;2022-12-18T06:20:59;-4.90;74.60
71668;DHT22;59504;54.806;9.640;2022-12-18T06:23:19;-4.90;74.70
71668;DHT22;59504;54.806;9.640;2022-12-18T06:25:39;-4.90;74.70
71668;DHT22;59504;54.806;9.640;2022-12-18T06:27:58;-5.00;74.70
71668;DHT22;59504;54.806;9.640;2022-12-18T06:30:18;-4.90;75.40
71668;DHT22;59504;54.806;9.640;2022-12-18T06:32:37;-4.90;74.80
71668;DHT22;59504;54.806;9.640;2022-12-18T06:34:56;-5.00;74.70
71668;DHT22;59504;54.806;9.640;2022-12-18T06:37:15;-4.90;74.80
71668;DHT22;59504;54.806;9.640;2022-12-18T06:39:34;-5.00;74.70
71668;DHT22;59504;54.806;9.640;2022-12-18T06:41:53;-5.00;74.70
71668;DHT22;59504;54.806;9.640;2022-12-18T06:44:13;-5.00;74.80
71668;DHT22;59504;54.806;9.640;2022-12-18T06:46:32;-5.00;74.80
71668;DHT22;59504;54.806;9.640;2022-12-18T06:48:51;-5.00;74.80
71668;DHT22;59504;54.806;9.640;2022-12-18T06:51:10;-5.00;74.80
71668;DHT22;59504;54.806;9.640;2022-12-18T06:53:29;-5.00;74.80
71668;DHT22;59504;54.806;9.640;2022-12-18T06:55:48;-5.00;74.90
71668;DHT22;59504;54.806;9.640;2022-12-18T06:58:08;-5.00;74.90
71668;DHT22;59504;54.806;9.640;2022-12-18T07:00:27;-5.00;74.90
71668;DHT22;59504;54.806;9.640;2022-12-18T07:02:47;-4.90;75.00
71668;DHT22;59504;54.806;9.640;2022-12-18T07:05:06;-5.00;74.90
71668;DHT22;59504;54.806;9.640;2022-12-18T07:07:26;-5.00;74.90
71668;DHT22;59504;54.806;9.640;2022-12-18T07:09:45;-5.00;75.00
71668;DHT22;59504;54.806;9.640;2022-12-18T07:12:04;-5.00;75.00
71668;DHT22;59504;54.806;9.640;2022-12-18T07:14:24;-5.00;75.00
71668;DHT22;59504;54.806;9.640;2022-12-18T07:16:43;-5.00;75.00
71668;DHT22;59504;54.806;9.640;2022-12-18T07:19:02;-5.00;75.10
71668;DHT22;59504;54.806;9.640;2022-12-18T07:21:22;-5.00;75.00
71668;DHT22;59504;54.806;9.640;2022-12-18T07:23:42;-5.00;75.10
71668;DHT22;59504;54.806;9.640;2022-12-18T07:26:03;-5.00;75.00
71668;DHT22;59504;54.806;9.640;2022-12-18T07:28:23;-5.00;75.00
71668;DHT22;59504;54.806;9.640;2022-12-18T07:30:42;-5.00;75.10
71668;DHT22;59504;54.806;9.640;2022-12-18T07:33:01;-5.00;75.00
71668;DHT22;59504;54.806;9.640;2022-12-18T07:35:20;-5.00;75.00
71668;DHT22;59504;54.806;9.640;2022-12-18T07:37:40;-5.00;75.00
71668;DHT22;59504;54.806;9.640;2022-12-18T07:39:59;-5.00;75.00
71668;DHT22;59504;54.806;9.640;2022-12-18T07:42:18;-5.00;74.90
71668;DHT22;59504;54.806;9.640;2022-12-18T07:44:50;-5.00;75.70
71668;DHT22;59504;54.806;9.640;2022-12-18T07:47:09;-5.00;75.00
71668;DHT22;59504;54.806;9.640;2022-12-18T07:49:28;-5.00;74.90
71668;DHT22;59504;54.806;9.640;2022-12-18T07:51:47;-5.00;74.90
71668;DHT22;59504;54.806;9.640;2022-12-18T07:54:08;-5.00;75.00
71668;DHT22;59504;54.806;9.640;2022-12-18T07:56:27;-5.00;75.00
71668;DHT22;59504;54.806;9.640;2022-12-18T07:58:45;-5.00;75.00
71668;DHT22;59504;54.806;9.640;2022-12-18T08:01:09;-5.00;74.90
71668;DHT22;59504;54.806;9.640;2022-12-18T08:03:28;-5.00;75.10
71668;DHT22;59504;54.806;9.640;2022-12-18T08:05:47;-5.00;74.90
71668;DHT22;59504;54.806;9.640;2022-12-18T08:08:06;-5.00;75.00
71668;DHT22;59504;54.806;9.640;2022-12-18T08:10:25;-5.00;75.00
71668;DHT22;59504;54.806;9.640;2022-12-18T08:12:45;-5.00;75.00
71668;DHT22;59504;54.806;9.640;2022-12-18T08:15:04;-5.00;75.00
71668;DHT22;59504;54.806;9.640;2022-12-18T08:17:24;-5.00;75.00
71668;DHT22;59504;54.806;9.640;2022-12-18T08:19:43;-5.00;75.10
71668;DHT22;59504;54.806;9.640;2022-12-18T08:22:02;-5.00;75.00
71668;DHT22;59504;54.806;9.640;2022-12-18T08:24:21;-5.00;75.10
71668;DHT22;59504;54.806;9.640;2022-12-18T08:26:40;-4.90;75.20
71668;DHT22;59504;54.806;9.640;2022-12-18T08:29:00;-4.90;75.10
71668;DHT22;59504;54.806;9.640;2022-12-18T08:31:19;-4.90;75.20
71668;DHT22;59504;54.806;9.640;2022-12-18T08:33:39;-4.90;75.20
71668;DHT22;59504;54.806;9.640;2022-12-18T08:35:59;-4.90;75.20
71668;DHT22;59504;54.806;9.640;2022-12-18T08:38:19;-4.90;75.30
71668;DHT22;59504;54.806;9.640;2022-12-18T08:40:38;-4.80;75.30
71668;DHT22;59504;54.806;9.640;2022-12-18T08:42:57;-4.80;75.30
71668;DHT22;59504;54.806;9.640;2022-12-18T08:45:35;-4.80;75.40
71668;DHT22;59504;54.806;9.640;2022-12-18T08:47:54;-4.80;75.30
71668;DHT22;59504;54.806;9.640;2022-12-18T08:50:14;-4.70;75.40
71668;DHT22;59504;54.806;9.640;2022-12-18T08:52:34;-4.60;75.50
71668;DHT22;59504;54.806;9.640;2022-12-18T08:54:53;-4.70;76.30
71668;DHT22;59504;54.806;9.640;2022-12-18T08:57:12;-4.70;75.50
71668;DHT22;59504;54.806;9.640;2022-12-18T08:59:31;-4.60;75.50
71668;DHT22;59504;54.806;9.640;2022-12-18T09:01:50;-4.60;75.50
71668;DHT22;59504;54.806;9.640;2022-12-18T09:04:12;-4.60;75.50
71668;DHT22;59504;54.806;9.640;2022-12-18T09:06:32;-4.50;76.30
71668;DHT22;59504;54.806;9.640;2022-12-18T09:08:51;-4.50;75.60
71668;DHT22;59504;54.806;9.640;2022-12-18T09:11:18;-4.50;75.60
71668;DHT22;59504;54.806;9.640;2022-12-18T09:13:38;-4.40;75.70
71668;DHT22;59504;54.806;9.640;2022-12-18T09:15:57;-4.40;75.70
71668;DHT22;59504;54.806;9.640;2022-12-18T09:18:18;-4.30;75.80
71668;DHT22;59504;54.806;9.640;2022-12-18T09:20:38;-4.30;75.80
71668;DHT22;59504;54.806;9.640;2022-12-18T09:22:57;-4.30;75.80
71668;DHT22;59504;54.806;9.640;2022-12-18T09:25:16;-4.20;75.80
71668;DHT22;59504;54.806;9.640;2022-12-18T09:27:36;-4.20;75.80
71668;DHT22;59504;54.806;9.640;2022-12-18T09:29:55;-4.10;76.00
71668;DHT22;59504;54.806;9.640;2022-12-18T09:32:14;-4.10;76.00
71668;DHT22;59504;54.806;9.640;2022-12-18T09:34:34;-4.00;76.00
71668;DHT22;59504;54.806;9.640;2022-12-18T09:36:53;-4.00;76.10
71668;DHT22;59504;54.806;9.640;2022-12-18T09:39:12;-3.90;76.20
71668;DHT22;59504;54.806;9.640;2022-12-18T09:41:44;-3.80;76.20
71668;DHT22;59504;54.806;9.640;2022-12-18T09:44:24;-3.80;76.10
71668;DHT22;59504;54.806;9.640;2022-12-18T09:47:09;-3.70;76.10
71668;DHT22;59504;54.806;9.640;2022-12-18T09:49:30;-3.60;76.10
71668;DHT22;59504;54.806;9.640;2022-12-18T09:54:42;-3.50;75.90
71668;DHT22;59504;54.806;9.640;2022-12-18T09:57:03;-3.40;75.80
71668;DHT22;59504;54.806;9.640;2022-12-18T09:59:36;-3.40;75.70
71668;DHT22;59504;54.806;9.640;2022-12-18T10:01:56;-3.40;75.60
71668;DHT22;59504;54.806;9.640;2022-12-18T10:04:15;-3.30;75.60
71668;DHT22;59504;54.806;9.640;2022-12-18T10:09:42;-3.20;75.30
71668;DHT22;59504;54.806;9.640;2022-12-18T10:12:09;-3.10;75.30
71668;DHT22;59504;54.806;9.640;2022-12-18T10:17:58;-3.10;75.20
71668;DHT22;59504;54.806;9.640;2022-12-18T10:23:17;-3.00;74.90
71668;DHT22;59504;54.806;9.640;2022-12-18T10:26:03;-2.90;74.80
71668;DHT22;59504;54.806;9.640;2022-12-18T10:28:23;-2.90;74.40
71668;DHT22;59504;54.806;9.640;2022-12-18T10:30:44;-2.90;74.40
71668;DHT22;59504;54.806;9.640;2022-12-18T10:33:03;-2.80;74.30
71668;DHT22;59504;54.806;9.640;2022-12-18T10:35:24;-2.80;74.20
71668;DHT22;59504;54.806;9.640;2022-12-18T10:40:26;-2.70;73.90
71668;DHT22;59504;54.806;9.640;2022-12-18T10:42:46;-2.70;73.90
71668;DHT22;59504;54.806;9.640;2022-12-18T10:45:16;-2.60;73.80
71668;DHT22;59504;54.806;9.640;2022-12-18T10:47:48;-2.60;73.70
71668;DHT22;59504;54.806;9.640;2022-12-18T10:50:34;-2.60;73.70
71668;DHT22;59504;54.806;9.640;2022-12-18T10:52:56;-2.50;73.70
71668;DHT22;59504;54.806;9.640;2022-12-18T10:55:17;-2.50;73.50
71668;DHT22;59504;54.806;9.640;2022-12-18T10:57:39;-2.40;73.60
71668;DHT22;59504;54.806;9.640;2022-12-18T11:00:18;-2.40;73.40
71668;DHT22;59504;54.806;9.640;2022-12-18T11:02:38;-2.40;73.20
71668;DHT22;59504;54.806;9.640;2022-12-18T11:04:57;-2.30;72.90
71668;DHT22;59504;54.806;9.640;2022-12-18T11:07:17;-2.30;72.70
71668;DHT22;59504;54.806;9.640;2022-12-18T11:09:38;-2.20;72.70
71668;DHT22;59504;54.806;9.640;2022-12-18T11:12:00;-2.20;72.70
71668;DHT22;59504;54.806;9.640;2022-12-18T11:14:26;-2.20;72.50
71668;DHT22;59504;54.806;9.640;2022-12-18T11:16:48;-2.20;72.40
71668;DHT22;59504;54.806;9.640;2022-12-18T11:21:41;-2.00;73.20
71668;DHT22;59504;54.806;9.640;2022-12-18T11:24:01;-2.00;72.40
71668;DHT22;59504;54.806;9.640;2022-12-18T11:26:20;-1.90;72.30
71668;DHT22;59504;54.806;9.640;2022-12-18T11:28:49;-1.90;71.80
71668;DHT22;59504;54.806;9.640;2022-12-18T11:33:34;-1.80;71.70
71668;DHT22;59504;54.806;9.640;2022-12-18T11:36:01;-1.80;71.30
71668;DHT22;59504;54.806;9.640;2022-12-18T11:38:31;-1.70;71.00
71668;DHT22;59504;54.806;9.640;2022-12-18T11:40:58;-1.70;70.90
71668;DHT22;59504;54.806;9.640;2022-12-18T11:43:40;-1.70;70.80
71668;DHT22;59504;54.806;9.640;2022-12-18T11:46:05;-1.70;70.40
71668;DHT22;59504;54.806;9.640;2022-12-18T11:48:30;-1.70;69.90
71668;DHT22;59504;54.806;9.640;2022-12-18T11:51:00;-1.70;69.70
71668;DHT22;59504;54.806;9.640;2022-12-18T11:53:21;-1.60;70.10
71668;DHT22;59504;54.806;9.640;2022-12-18T12:12:02;-1.60;69.70
71668;DHT22;59504;54.806;9.640;2022-12-18T12:20:19;-1.50;69.50
71668;DHT22;59504;54.806;9.640;2022-12-18T12:23:14;-1.50;69.60
71668;DHT22;59504;54.806;9.640;2022-12-18T12:36:42;-1.40;69.20
71668;DHT22;59504;54.806;9.640;2022-12-18T12:39:13;-1.40;69.10
71668;DHT22;59504;54.806;9.640;2022-12-18T12:41:35;-1.40;69.00
71668;DHT22;59504;54.806;9.640;2022-12-18T12:44:39;-1.40;68.80
71668;DHT22;59504;54.806;9.640;2022-12-18T12:47:04;-1.40;68.70
71668;DHT22;59504;54.806;9.640;2022-12-18T12:49:31;-1.30;68.70
71668;DHT22;59504;54.806;9.640;2022-12-18T12:52:07;-1.40;68.50
71668;DHT22;59504;54.806;9.640;2022-12-18T12:54:31;-1.30;68.60
71668;DHT22;59504;54.806;9.640;2022-12-18T12:57:21;-1.30;68.60
71668;DHT22;59504;54.806;9.640;2022-12-18T13:08:10;-1.40;67.90
71668;DHT22;59504;54.806;9.640;2022-12-18T13:10:36;-1.40;67.80
71668;DHT22;59504;54.806;9.640;2022-12-18T13:17:45;-1.50;68.30
71668;DHT22;59504;54.806;9.640;2022-12-18T13:20:10;-1.50;67.80
71668;DHT22;59504;54.806;9.640;2022-12-18T13:22:48;-1.50;67.50
71668;DHT22;59504;54.806;9.640;2022-12-18T13:25:34;-1.50;67.20
71668;DHT22;59504;54.806;9.640;2022-12-18T13:38:22;-1.60;66.80
71668;DHT22;59504;54.806;9.640;2022-12-18T13:40:55;-1.60;66.90
71668;DHT22;59504;54.806;9.640;2022-12-18T13:48:04;-1.70;67.10
71668;DHT22;59504;54.806;9.640;2022-12-18T13:50:25;-1.70;66.40
71668;DHT22;59504;54.806;9.640;2022-12-18T13:52:45;-1.70;66.80
71668;DHT22;59504;54.806;9.640;2022-12-18T13:55:10;-1.70;66.80
71668;DHT22;59504;54.806;9.640;2022-12-18T13:57:37;-1.80;66.70
71668;DHT22;59504;54.806;9.640;2022-12-18T13:59:58;-1.80;66.40
71668;DHT22;59504;54.806;9.640;2022-12-18T14:02:21;-1.80;66.60
71668;DHT22;59504;54.806;9.640;2022-12-18T14:04:41;-1.80;66.70
71668;DHT22;59504;54.806;9.640;2022-12-18T14:07:35;-1.90;66.70
71668;DHT22;59504;54.806;9.640;2022-12-18T14:09:59;-1.90;66.60
71668;DHT22;59504;54.806;9.640;2022-12-18T14:12:28;-1.90;66.70
71668;DHT22;59504;54.806;9.640;2022-12-18T14:15:34;-1.90;66.80
71668;DHT22;59504;54.806;9.640;2022-12-18T14:17:59;-1.90;66.80
71668;DHT22;59504;54.806;9.640;2022-12-18T14:20:19;-1.90;66.90
71668;DHT22;59504;54.806;9.640;2022-12-18T14:22:43;-2.00;67.00
71668;DHT22;59504;54.806;9.640;2022-12-18T14:25:20;-2.00;67.00
71668;DHT22;59504;54.806;9.640;2022-12-18T14:27:49;-2.00;67.10
71668;DHT22;59504;54.806;9.640;2022-12-18T14:32:43;-2.10;66.80
71668;DHT22;59504;54.806;9.640;2022-12-18T14:35:13;-2.10;66.80
71668;DHT22;59504;54.806;9.640;2022-12-18T14:37:32;-2.10;66.90
71668;DHT22;59504;54.806;9.640;2022-12-18T14:39:59;-2.10;66.90
71668;DHT22;59504;54.806;9.640;2022-12-18T14:42:19;-2.20;66.80
71668;DHT22;59504;54.806;9.640;2022-12-18T14:44:38;-2.20;66.80
71668;DHT22;59504;54.806;9.640;2022-12-18T14:46:57;-2.20;66.90
71668;DHT22;59504;54.806;9.640;2022-12-18T14:49:33;-2.30;66.70
71668;DHT22;59504;54.806;9.640;2022-12-18T14:52:01;-2.30;66.70
71668;DHT22;59504;54.806;9.640;2022-12-18T14:54:22;-2.30;66.80
71668;DHT22;59504;54.806;9.640;2022-12-18T14:56:48;-2.40;66.80
71668;DHT22;59504;54.806;9.640;2022-12-18T14:59:17;-2.40;66.90
71668;DHT22;59504;54.806;9.640;2022-12-18T15:06:47;-2.50;66.80
71668;DHT22;59504;54.806;9.640;2022-12-18T15:09:22;-2.60;66.80
71668;DHT22;59504;54.806;9.640;2022-12-18T15:14:21;-2.60;66.90
71668;DHT22;59504;54.806;9.640;2022-12-18T15:16:40;-2.70;66.90
71668;DHT22;59504;54.806;9.640;2022-12-18T15:19:00;-2.70;67.00
71668;DHT22;59504;54.806;9.640;2022-12-18T15:21:20;-2.80;67.00
71668;DHT22;59504;54.806;9.640;2022-12-18T15:23:52;-2.80;67.00
71668;DHT22;59504;54.806;9.640;2022-12-18T15:26:14;-2.80;67.00
71668;DHT22;59504;54.806;9.640;2022-12-18T15:28:37;-2.90;67.10
71668;DHT22;59504;54.806;9.640;2022-12-18T15:33:33;-2.90;67.20
71668;DHT22;59504;54.806;9.640;2022-12-18T15:36:01;-3.00;67.20
71668;DHT22;59504;54.806;9.640;2022-12-18T15:38:20;-3.00;67.30
71668;DHT22;59504;54.806;9.640;2022-12-18T15:40:39;-3.00;67.30
71668;DHT22;59504;54.806;9.640;2022-12-18T15:42:58;-3.10;67.40
71668;DHT22;59504;54.806;9.640;2022-12-18T15:45:37;-3.10;67.40
71668;DHT22;59504;54.806;9.640;2022-12-18T15:47:56;-3.10;67.50
71668;DHT22;59504;54.806;9.640;2022-12-18T15:50:15;-3.10;67.60
71668;DHT22;59504;54.806;9.640;2022-12-18T15:52:46;-3.20;67.60
71668;DHT22;59504;54.806;9.640;2022-12-18T15:55:17;-3.20;67.70
71668;DHT22;59504;54.806;9.640;2022-12-18T15:57:55;-3.20;67.90
71668;DHT22;59504;54.806;9.640;2022-12-18T16:00:32;-3.20;67.90
71668;DHT22;59504;54.806;9.640;2022-12-18T16:02:58;-3.20;68.00
71668;DHT22;59504;54.806;9.640;2022-12-18T16:05:32;-3.20;68.00
71668;DHT22;59504;54.806;9.640;2022-12-18T16:07:51;-3.20;68.10
71668;DHT22;59504;54.806;9.640;2022-12-18T16:10:13;-3.10;68.20
71668;DHT22;59504;54.806;9.640;2022-12-18T16:12:39;-3.20;68.30
71668;DHT22;59504;54.806;9.640;2022-12-18T16:14:58;-3.20;68.30
71668;DHT22;59504;54.806;9.640;2022-12-18T16:17:17;-3.30;68.20
71668;DHT22;59504;54.806;9.640;2022-12-18T16:19:37;-3.20;68.30
71668;DHT22;59504;54.806;9.640;2022-12-18T16:21:57;-3.20;68.40
71668;DHT22;59504;54.806;9.640;2022-12-18T16:24:33;-3.30;68.40
71668;DHT22;59504;54.806;9.640;2022-12-18T16:26:57;-3.20;68.50
71668;DHT22;59504;54.806;9.640;2022-12-18T16:29:19;-3.20;68.50
71668;DHT22;59504;54.806;9.640;2022-12-18T16:31:43;-3.20;68.60
71668;DHT22;59504;54.806;9.640;2022-12-18T16:34:29;-3.20;68.50
71668;DHT22;59504;54.806;9.640;2022-12-18T16:36:49;-3.20;68.50
71668;DHT22;59504;54.806;9.640;2022-12-18T16:39:08;-3.20;68.50
71668;DHT22;59504;54.806;9.640;2022-12-18T16:41:27;-3.30;68.40
71668;DHT22;59504;54.806;9.640;2022-12-18T16:43:50;-3.30;68.50
71668;DHT22;59504;54.806;9.640;2022-12-18T16:46:09;-3.30;68.50
71668;DHT22;59504;54.806;9.640;2022-12-18T16:48:28;-3.30;68.50